Time;durP1;ratioP1;P1;durP2;ratioP2;P2;SDS_P1;SDS_P2;PMS_P1;PMS_P2;Temp;Humidity;BMP_temperature;BMP_pressure;BME280_temperature;BME280_humidity;BME280_pressure;Samples;Min_cycle;Max_cycle;Signal;HPM_P1;HPM_P2
2022/02/06 00:00:59;;;;;;;1.52;0.40;;;3.60;99.90;;;;;;5157584;27;20891;-59
2022/02/06 00:03:27;;;;;;;1.00;0.40;;;3.50;99.90;;;;;;5159322;27;20432;-59
2022/02/06 00:05:57;;;;;;;0.87;0.50;;;3.40;1.00;;;;;;5158761;27;20556;-59
2022/02/06 00:08:26;;;;;;;1.30;0.50;;;3.40;1.00;;;;;;5159995;27;20405;-59
2022/02/06 00:10:53;;;;;;;1.38;0.40;;;3.30;1.00;;;;;;5158547;27;20431;-59
2022/02/06 00:13:21;;;;;;;1.80;0.40;;;3.30;1.00;;;;;;5159562;27;20470;-59
2022/02/06 00:15:48;;;;;;;0.88;0.40;;;3.30;1.00;;;;;;5158644;27;20404;-59
2022/02/06 00:18:16;;;;;;;2.05;0.40;;;3.30;1.00;;;;;;5159139;27;20501;-59
2022/02/06 00:20:50;;;;;;;1.52;0.40;;;3.30;1.00;;;;;;5157225;27;20519;-59
2022/02/06 00:23:19;;;;;;;1.58;0.40;;;3.30;1.00;;;;;;5159317;27;20415;-59
2022/02/06 00:25:55;;;;;;;1.90;0.40;;;3.30;1.00;;;;;;5157589;27;20527;-59
2022/02/06 00:28:34;;;;;;;0.73;0.40;;;3.30;1.00;;;;;;5158416;27;20420;-59
2022/02/06 00:31:10;;;;;;;1.30;0.40;;;3.30;1.00;;;;;;5156358;27;20424;-59
2022/02/06 00:33:47;;;;;;;2.13;0.40;;;3.40;1.00;;;;;;5156582;27;20420;-59
2022/02/06 00:39:07;;;;;;;1.80;0.40;;;3.60;1.00;;;;;;5156654;27;20392;-59
2022/02/06 00:41:35;;;;;;;1.20;0.40;;;3.60;99.90;;;;;;5157378;27;20528;-59
2022/02/06 00:44:04;;;;;;;0.50;0.30;;;3.70;99.90;;;;;;5158199;27;20433;-59
2022/02/06 00:46:32;;;;;;;0.60;0.30;;;3.70;1.00;;;;;;5158457;27;20464;-59
2022/02/06 00:49:09;;;;;;;0.50;0.30;;;3.70;99.90;;;;;;5158834;27;20416;-59
2022/02/06 00:51:42;;;;;;;1.40;0.37;;;3.80;99.90;;;;;;5156299;27;20511;-59
2022/02/06 00:54:09;;;;;;;1.20;0.38;;;3.90;99.90;;;;;;5158679;27;20519;-59
2022/02/06 00:56:39;;;;;;;1.67;0.40;;;3.90;99.90;;;;;;5158374;27;20469;-59
2022/02/06 00:59:06;;;;;;;1.13;0.40;;;3.90;99.90;;;;;;5158553;27;20408;-60
2022/02/06 01:01:33;;;;;;;1.17;0.40;;;4.00;99.90;;;;;;5156767;27;20502;-60
2022/02/06 01:04:01;;;;;;;1.15;0.30;;;4.10;8.50;;;;;;5157230;27;20503;-59
2022/02/06 01:06:28;;;;;;;0.90;0.32;;;4.00;99.90;;;;;;5156493;27;20521;-59
2022/02/06 01:08:55;;;;;;;0.60;0.30;;;4.00;1.00;;;;;;5157290;27;20504;-59
2022/02/06 01:11:22;;;;;;;1.33;0.40;;;4.00;15.80;;;;;;5157110;27;20442;-59
2022/02/06 01:13:59;;;;;;;1.00;0.30;;;4.00;99.90;;;;;;5156994;27;20899;-59
2022/02/06 01:16:29;;;;;;;1.20;0.30;;;3.90;1.00;;;;;;5155908;27;20851;-60
2022/02/06 01:19:00;;;;;;;1.23;0.30;;;4.00;99.90;;;;;;5157275;27;20409;-59
2022/02/06 01:21:43;;;;;;;0.97;0.40;;;4.10;1.00;;;;;;5155864;27;20434;-58
2022/02/06 01:24:15;;;;;;;0.60;0.30;;;4.10;1.00;;;;;;5156077;27;20787;-59
2022/02/06 01:26:46;;;;;;;1.10;0.40;;;4.20;1.00;;;;;;5155482;27;20428;-59
2022/02/06 01:29:20;;;;;;;0.90;0.30;;;4.10;1.00;;;;;;5156387;27;20424;-59
2022/02/06 01:31:58;;;;;;;1.55;0.30;;;4.10;1.00;;;;;;5155589;27;20481;-58
2022/02/06 01:34:32;;;;;;;1.10;0.30;;;4.00;1.00;;;;;;5155497;27;20465;-59
2022/02/06 01:37:09;;;;;;;0.98;0.30;;;3.90;99.90;;;;;;5156549;27;20409;-59
2022/02/06 01:39:53;;;;;;;1.15;0.30;;;4.00;99.90;;;;;;5157319;27;20830;-59
2022/02/06 01:42:28;;;;;;;1.00;0.40;;;4.00;99.90;;;;;;5157996;27;20419;-59
2022/02/06 01:45:09;;;;;;;1.30;0.30;;;4.00;22.80;;;;;;5157283;27;20425;-59
2022/02/06 02:01:37;;;;;;;1.02;0.40;;;4.10;99.90;;;;;;5157012;27;20399;-59
2022/02/06 02:04:11;;;;;;;1.20;0.32;;;4.20;99.90;;;;;;5155146;27;20443;-59
2022/02/06 02:07:16;;;;;;;1.40;0.40;;;4.20;99.90;;;;;;5154366;27;20713;-60
2022/02/06 02:10:16;;;;;;;0.80;0.30;;;4.10;99.90;;;;;;5154026;27;20597;-59
2022/02/06 02:12:57;;;;;;;0.90;0.40;;;4.00;99.90;;;;;;5155766;27;20420;-60
2022/02/06 02:18:22;;;;;;;0.98;0.40;;;3.80;1.00;;;;;;5137260;27;20400;-59
2022/02/06 02:21:09;;;;;;;0.90;0.50;;;3.90;99.90;;;;;;5156360;27;20943;-60
2022/02/06 02:23:53;;;;;;;1.90;0.40;;;3.80;1.00;;;;;;5157409;27;20463;-59
2022/02/06 02:26:46;;;;;;;0.80;0.30;;;3.80;1.00;;;;;;5156284;27;20443;-60
2022/02/06 02:29:47;;;;;;;1.73;0.40;;;3.80;1.00;;;;;;5151836;27;20428;-60
2022/02/06 02:43:45;;;;;;;1.70;0.40;;;3.80;1.00;;;;;;5154898;27;20453;-59
2022/02/06 02:46:12;;;;;;;0.80;0.30;;;3.80;1.00;;;;;;5155286;27;20416;-59
2022/02/06 02:48:42;;;;;;;1.40;0.30;;;3.80;1.00;;;;;;5154064;27;20839;-60
2022/02/06 02:51:10;;;;;;;0.70;0.32;;;3.90;1.00;;;;;;5156013;27;20413;-59
2022/02/06 02:53:42;;;;;;;1.70;0.30;;;3.90;99.90;;;;;;5154396;27;20481;-60
2022/02/06 02:56:22;;;;;;;0.70;0.40;;;3.90;99.90;;;;;;5155192;27;20405;-60
2022/02/06 02:58:59;;;;;;;0.80;0.30;;;3.80;1.00;;;;;;5153656;27;20417;-59
2022/02/06 03:01:31;;;;;;;1.70;0.30;;;3.90;1.00;;;;;;5156707;27;20463;-59
2022/02/06 03:03:58;;;;;;;1.38;0.30;;;3.80;99.90;;;;;;5155270;27;20473;-59
2022/02/06 03:06:25;;;;;;;0.80;0.40;;;3.80;1.00;;;;;;5156121;27;20425;-59
2022/02/06 03:08:55;;;;;;;0.70;0.32;;;3.90;1.00;;;;;;5155947;27;20792;-60
2022/02/06 03:11:22;;;;;;;2.25;0.30;;;4.00;99.90;;;;;;5156690;27;20413;-59
2022/02/06 03:13:56;;;;;;;0.90;0.30;;;4.00;1.00;;;;;;5155483;27;20516;-59
2022/02/06 03:16:26;;;;;;;1.10;0.30;;;4.00;99.90;;;;;;5155649;27;20413;-59
2022/02/06 03:19:02;;;;;;;0.50;0.30;;;4.00;99.90;;;;;;5155010;27;20433;-59
2022/02/06 03:21:31;;;;;;;0.77;0.30;;;4.10;99.90;;;;;;5155118;27;20885;-59
2022/02/06 03:24:10;;;;;;;2.30;0.30;;;4.10;99.90;;;;;;5154125;27;20489;-59
2022/02/06 03:26:37;;;;;;;2.00;0.30;;;4.10;99.90;;;;;;5154353;27;20425;-59
2022/02/06 03:29:04;;;;;;;0.88;0.30;;;4.20;99.90;;;;;;5153268;27;20503;-59
2022/02/06 03:31:31;;;;;;;1.30;0.30;;;4.30;1.00;;;;;;5155715;27;20430;-59
2022/02/06 03:33:57;;;;;;;1.40;0.30;;;4.30;1.00;;;;;;5155415;27;20509;-58
2022/02/06 03:36:24;;;;;;;2.90;0.40;;;4.40;99.90;;;;;;5156556;27;20488;-59
2022/02/06 03:38:53;;;;;;;0.50;0.30;;;4.50;99.60;;;;;;5155380;27;20851;-59
2022/02/06 03:41:22;;;;;;;0.63;0.30;;;4.50;99.90;;;;;;5155758;27;20405;-59
2022/02/06 03:43:55;;;;;;;1.38;0.20;;;4.60;99.90;;;;;;5154950;27;20836;-59
2022/02/06 03:46:28;;;;;;;0.50;0.20;;;4.70;99.90;;;;;;5155748;27;20428;-59
2022/02/06 03:49:03;;;;;;;1.30;0.30;;;4.70;1.00;;;;;;5155063;27;20869;-59
2022/02/06 03:51:33;;;;;;;0.60;0.30;;;4.70;1.00;;;;;;5156172;27;20413;-59
2022/02/06 03:54:00;;;;;;;0.80;0.20;;;4.60;99.90;;;;;;5154789;27;20421;-59
2022/02/06 03:56:30;;;;;;;1.10;0.30;;;4.60;99.90;;;;;;5156299;27;20412;-58
2022/02/06 03:58:57;;;;;;;0.57;0.30;;;4.60;1.00;;;;;;5155480;27;20425;-59
2022/02/06 04:01:24;;;;;;;0.90;0.30;;;4.60;99.90;;;;;;5156160;27;20448;-60
2022/02/06 04:03:51;;;;;;;0.90;0.30;;;4.60;1.00;;;;;;5154595;27;20867;-59
2022/02/06 04:06:18;;;;;;;0.50;0.20;;;4.60;99.90;;;;;;5156059;27;20499;-59
2022/02/06 04:08:46;;;;;;;1.52;0.25;;;4.60;1.00;;;;;;5155006;27;20448;-59
2022/02/06 04:11:16;;;;;;;1.50;0.30;;;4.60;1.00;;;;;;5157497;27;20408;-59
2022/02/06 04:13:55;;;;;;;1.15;0.30;;;4.60;99.90;;;;;;5158202;27;20428;-59
2022/02/06 04:16:27;;;;;;;1.30;0.30;;;4.70;99.90;;;;;;5159729;27;20526;-59
2022/02/06 04:19:05;;;;;;;1.30;0.30;;;4.70;1.00;;;;;;5157930;27;20425;-58
2022/02/06 04:21:33;;;;;;;1.00;0.40;;;4.70;81.90;;;;;;5159186;27;20409;-59
2022/02/06 04:24:00;;;;;;;0.70;0.33;;;4.70;99.90;;;;;;5158065;27;20504;-59
2022/02/06 04:26:27;;;;;;;0.40;0.20;;;4.70;99.90;;;;;;5159370;27;20409;-59
2022/02/06 04:28:56;;;;;;;3.20;0.30;;;4.80;1.00;;;;;;5157353;27;20416;-59
2022/02/06 04:31:23;;;;;;;0.60;0.30;;;4.90;99.90;;;;;;5159566;27;20504;-59
2022/02/06 04:33:51;;;;;;;0.60;0.30;;;4.90;1.00;;;;;;5157834;27;20420;-59
2022/02/06 04:36:20;;;;;;;0.50;0.20;;;4.90;1.00;;;;;;5158798;27;20417;-59
2022/02/06 04:38:58;;;;;;;0.77;0.30;;;4.80;99.90;;;;;;5157412;27;20420;-58
2022/02/06 04:41:43;;;;;;;0.60;0.30;;;4.90;1.00;;;;;;5158904;27;20413;-59
2022/02/06 04:44:41;;;;;;;0.52;0.20;;;4.80;99.90;;;;;;5157823;27;20416;-59
2022/02/06 05:18:17;;;;;;;0.50;0.30;;;4.90;1.00;;;;;;5175132;27;20629;-58
2022/02/06 05:20:58;;;;;;;0.43;0.20;;;5.00;1.00;;;;;;5173765;27;20700;-58
2022/02/06 05:26:44;;;;;;;0.90;0.20;;;5.00;1.00;;;;;;5112261;27;20352;-60
2022/02/06 05:29:22;;;;;;;1.10;0.30;;;5.00;1.00;;;;;;5111286;28;20457;-59
2022/02/06 05:32:01;;;;;;;0.40;0.20;;;5.00;1.00;;;;;;5112837;28;20417;-58
2022/02/06 05:34:27;;;;;;;0.70;0.30;;;5.00;1.00;;;;;;5111404;28;20478;-59
2022/02/06 05:36:54;;;;;;;0.63;0.30;;;5.00;1.00;;;;;;5112460;28;20477;-59
2022/02/06 05:39:21;;;;;;;0.70;0.30;;;5.10;1.00;;;;;;5111605;28;20511;-59
2022/02/06 05:41:49;;;;;;;0.60;0.30;;;5.00;1.00;;;;;;5112016;28;20413;-60
2022/02/06 05:44:16;;;;;;;0.80;0.30;;;5.00;18.30;;;;;;5111233;28;20535;-58
2022/02/06 05:46:43;;;;;;;2.40;0.35;;;5.00;1.00;;;;;;5112576;28;20448;-58
2022/02/06 05:49:11;;;;;;;0.80;0.30;;;5.10;1.00;;;;;;5111525;28;20425;-59
2022/02/06 05:51:39;;;;;;;1.05;0.30;;;5.00;99.90;;;;;;5112964;28;20413;-58
2022/02/06 05:54:06;;;;;;;0.65;0.30;;;5.00;1.00;;;;;;5111486;28;20508;-58
2022/02/06 05:56:33;;;;;;;1.70;0.30;;;5.00;99.90;;;;;;5112187;28;20495;-59
2022/02/06 05:59:01;;;;;;;2.15;0.70;;;5.10;1.00;;;;;;5110769;28;20517;-59
2022/02/06 06:01:28;;;;;;;0.70;0.30;;;5.10;99.90;;;;;;5112185;28;20511;-59
2022/02/06 06:03:55;;;;;;;0.70;0.30;;;5.10;80.70;;;;;;5111047;28;20509;-59
2022/02/06 06:06:22;;;;;;;0.75;0.30;;;5.10;1.00;;;;;;5112191;28;20516;-59
2022/02/06 06:08:49;;;;;;;0.60;0.30;;;5.10;99.90;;;;;;5110522;28;20515;-59
2022/02/06 06:11:16;;;;;;;1.15;0.30;;;5.20;99.90;;;;;;5112026;28;20508;-60
2022/02/06 06:13:43;;;;;;;0.60;0.20;;;5.20;1.00;;;;;;5112143;28;20892;-60
2022/02/06 06:16:11;;;;;;;0.70;0.30;;;5.10;74.00;;;;;;5110995;28;20802;-59
2022/02/06 06:18:38;;;;;;;0.60;0.30;;;5.20;1.00;;;;;;5111959;28;20796;-59
2022/02/06 06:21:05;;;;;;;2.27;0.40;;;5.10;80.60;;;;;;5110506;28;20589;-59
2022/02/06 06:23:32;;;;;;;0.60;0.30;;;5.10;99.90;;;;;;5111786;28;20847;-59
2022/02/06 06:25:59;;;;;;;1.15;0.30;;;5.10;99.90;;;;;;5110471;28;20519;-59
2022/02/06 06:28:26;;;;;;;0.70;0.33;;;5.10;1.00;;;;;;5111909;28;20433;-59
2022/02/06 06:30:55;;;;;;;1.30;0.40;;;5.10;1.00;;;;;;5111274;28;20429;-59
2022/02/06 06:33:23;;;;;;;0.70;0.20;;;5.20;1.00;;;;;;5110890;28;20424;-58
2022/02/06 06:35:52;;;;;;;1.00;0.30;;;5.20;1.00;;;;;;5107359;28;20418;-59
2022/02/06 06:38:19;;;;;;;1.30;0.30;;;5.20;99.90;;;;;;5097861;28;20462;-59
2022/02/06 06:40:46;;;;;;;0.80;0.30;;;5.20;99.90;;;;;;5096947;28;20461;-59
2022/02/06 06:43:13;;;;;;;0.60;0.30;;;5.20;95.10;;;;;;5098110;28;20890;-59
2022/02/06 06:45:40;;;;;;;0.80;0.30;;;5.20;99.90;;;;;;5097243;28;20975;-59
2022/02/06 06:48:07;;;;;;;0.60;0.30;;;5.10;1.00;;;;;;5098127;28;20468;-59
2022/02/06 06:50:35;;;;;;;1.93;0.30;;;5.10;1.00;;;;;;5096729;28;20496;-59
2022/02/06 06:53:04;;;;;;;0.70;0.20;;;5.20;99.90;;;;;;5097827;28;20904;-58
2022/02/06 06:55:33;;;;;;;0.68;0.30;;;5.30;18.30;;;;;;5096243;28;20433;-59
2022/02/06 06:58:08;;;;;;;1.30;0.70;;;5.20;99.90;;;;;;5089366;28;20428;-59
2022/02/06 07:00:39;;;;;;;1.50;0.30;;;5.30;99.90;;;;;;5077717;28;20461;-59
2022/02/06 07:03:06;;;;;;;1.50;0.30;;;5.30;99.90;;;;;;5089371;28;20803;-59
2022/02/06 07:05:35;;;;;;;0.70;0.30;;;5.40;99.90;;;;;;5096851;28;20524;-59
2022/02/06 07:08:02;;;;;;;1.70;0.30;;;5.40;1.00;;;;;;5095847;28;20418;-59
2022/02/06 07:10:29;;;;;;;0.70;0.30;;;5.50;1.00;;;;;;5096835;28;20425;-59
2022/02/06 07:12:56;;;;;;;0.93;0.30;;;5.40;99.90;;;;;;5097233;28;20509;-59
2022/02/06 07:15:23;;;;;;;0.70;0.30;;;5.40;1.00;;;;;;5095393;28;20463;-59
2022/02/06 07:17:50;;;;;;;0.80;0.30;;;5.40;1.00;;;;;;5095903;28;20732;-59
2022/02/06 07:20:19;;;;;;;1.00;0.30;;;5.50;99.90;;;;;;5094844;28;20430;-58
2022/02/06 07:22:47;;;;;;;0.77;0.30;;;5.50;99.90;;;;;;5095812;28;20442;-59
2022/02/06 07:25:14;;;;;;;1.60;0.30;;;5.50;99.90;;;;;;5093344;28;20429;-59
2022/02/06 07:27:46;;;;;;;0.73;0.30;;;5.60;1.00;;;;;;5094572;28;20788;-58
2022/02/06 07:30:15;;;;;;;0.53;0.30;;;5.60;73.10;;;;;;5094035;28;20438;-59
2022/02/06 07:32:43;;;;;;;0.40;0.20;;;5.60;99.90;;;;;;5095285;28;20422;-59
2022/02/06 07:35:11;;;;;;;1.10;0.30;;;5.60;99.90;;;;;;5093636;28;20841;-59
2022/02/06 07:37:38;;;;;;;1.40;0.30;;;5.60;99.90;;;;;;5081930;28;20515;-59
2022/02/06 07:40:08;;;;;;;0.50;0.20;;;5.70;99.90;;;;;;5095426;28;20432;-59
2022/02/06 07:42:35;;;;;;;1.20;0.30;;;5.80;13.50;;;;;;5095960;28;20416;-59
2022/02/06 07:45:03;;;;;;;1.80;0.30;;;5.70;99.90;;;;;;5093962;28;20441;-59
2022/02/06 07:47:30;;;;;;;2.05;0.30;;;5.80;99.90;;;;;;5094428;28;20449;-59
2022/02/06 07:50:02;;;;;;;1.50;0.30;;;5.80;77.20;;;;;;5094641;28;20512;-59
2022/02/06 07:52:29;;;;;;;0.80;0.30;;;5.80;99.90;;;;;;5091027;28;20424;-58
2022/02/06 07:54:56;;;;;;;1.02;0.30;;;5.80;99.90;;;;;;5075401;28;20455;-60
2022/02/06 07:57:25;;;;;;;1.10;0.22;;;5.80;99.90;;;;;;5075536;28;20854;-59
2022/02/06 07:59:52;;;;;;;0.60;0.20;;;5.80;99.90;;;;;;5073889;28;20526;-59
2022/02/06 08:02:19;;;;;;;1.20;0.30;;;5.80;99.90;;;;;;5074967;28;20478;-59
2022/02/06 08:04:48;;;;;;;0.50;0.20;;;5.90;99.90;;;;;;5075005;28;20918;-59
2022/02/06 08:07:16;;;;;;;1.27;0.30;;;5.90;1.00;;;;;;5075696;28;20510;-59
2022/02/06 08:09:55;;;;;;;0.80;0.30;;;5.90;1.00;;;;;;5074214;28;20505;-59
2022/02/06 08:12:29;;;;;;;0.60;0.30;;;6.00;1.00;;;;;;5075456;28;20447;-59
2022/02/06 08:14:59;;;;;;;1.80;0.30;;;6.10;3.80;;;;;;5075470;28;20734;-60
2022/02/06 08:17:28;;;;;;;0.80;0.30;;;6.10;1.00;;;;;;5075875;28;20420;-59
2022/02/06 08:19:57;;;;;;;1.50;0.30;;;6.10;1.00;;;;;;5072440;28;20427;-58
2022/02/06 08:22:24;;;;;;;1.20;0.30;;;6.10;99.90;;;;;;5074014;28;20494;-57
2022/02/06 08:24:52;;;;;;;1.02;0.30;;;6.10;99.90;;;;;;5073065;28;20728;-59
2022/02/06 08:27:19;;;;;;;0.60;0.20;;;6.10;99.90;;;;;;5075254;28;20506;-59
2022/02/06 08:29:48;;;;;;;1.77;0.25;;;6.20;1.00;;;;;;5073884;28;20495;-59
2022/02/06 08:32:16;;;;;;;1.27;0.30;;;6.30;99.90;;;;;;5074592;28;20898;-60
2022/02/06 08:34:44;;;;;;;1.00;0.30;;;6.40;99.90;;;;;;5073265;28;20428;-60
2022/02/06 08:37:11;;;;;;;1.30;0.30;;;6.40;39.20;;;;;;5073707;28;20719;-59
2022/02/06 08:39:40;;;;;;;0.80;0.30;;;6.50;1.00;;;;;;5073907;28;20427;-59
2022/02/06 08:42:09;;;;;;;1.40;0.30;;;6.40;1.00;;;;;;5084377;28;20431;-59
2022/02/06 08:44:36;;;;;;;1.50;0.22;;;6.50;1.00;;;;;;5089202;28;20480;-60
2022/02/06 08:47:06;;;;;;;0.50;0.30;;;6.60;1.00;;;;;;5086005;28;20926;-59
2022/02/06 08:49:33;;;;;;;0.70;0.20;;;6.70;1.00;;;;;;5090779;28;20511;-59
2022/02/06 08:52:00;;;;;;;1.20;0.30;;;6.90;99.90;;;;;;5094284;28;20497;-59
2022/02/06 08:54:29;;;;;;;1.88;0.30;;;6.90;99.90;;;;;;5091509;28;20678;-59
2022/02/06 08:57:01;;;;;;;0.60;0.30;;;6.90;99.90;;;;;;5092571;28;20421;-59
2022/02/06 08:59:30;;;;;;;0.73;0.20;;;6.90;99.90;;;;;;5091068;28;20433;-59
2022/02/06 09:01:58;;;;;;;0.90;0.20;;;7.00;99.90;;;;;;5092144;28;20422;-60
2022/02/06 09:04:27;;;;;;;0.70;0.30;;;7.00;99.90;;;;;;5091167;28;20433;-59
2022/02/06 09:06:57;;;;;;;0.65;0.20;;;7.20;47.20;;;;;;5092848;28;20437;-60
2022/02/06 09:09:25;;;;;;;0.60;0.30;;;7.10;32.20;;;;;;5091971;28;20520;-60
2022/02/06 09:11:52;;;;;;;0.90;0.30;;;7.20;1.00;;;;;;5093397;28;20512;-59
2022/02/06 09:14:21;;;;;;;0.82;0.20;;;7.20;1.00;;;;;;5092210;28;20487;-59
2022/02/06 09:16:48;;;;;;;1.10;0.30;;;7.30;1.00;;;;;;5093741;28;20421;-59
2022/02/06 09:19:15;;;;;;;1.20;0.20;;;7.30;1.00;;;;;;5091921;28;20516;-59
2022/02/06 09:21:44;;;;;;;1.30;0.30;;;7.10;1.00;;;;;;5091601;28;20428;-59
2022/02/06 09:24:12;;;;;;;0.40;0.20;;;7.10;1.00;;;;;;5090429;28;20960;-59
2022/02/06 09:26:41;;;;;;;1.30;0.30;;;7.10;1.00;;;;;;5091304;28;20869;-59
2022/02/06 09:29:09;;;;;;;1.35;0.30;;;7.10;1.00;;;;;;5090931;28;20437;-60
2022/02/06 09:31:37;;;;;;;1.20;0.20;;;7.10;58.20;;;;;;5091448;28;20508;-59
2022/02/06 09:36:30;;;;;;;1.60;0.30;;;6.90;99.90;;;;;;5091759;28;20405;-59
2022/02/06 09:38:58;;;;;;;1.10;0.20;;;6.80;1.00;;;;;;5090151;28;20520;-59
2022/02/06 09:41:25;;;;;;;0.88;0.30;;;6.80;99.90;;;;;;5092275;28;20505;-59
2022/02/06 09:43:53;;;;;;;0.40;0.20;;;6.90;1.00;;;;;;5091753;28;20422;-59
2022/02/06 09:46:22;;;;;;;0.60;0.30;;;7.00;99.90;;;;;;5093399;28;20429;-59
2022/02/06 09:48:50;;;;;;;1.13;0.30;;;7.10;99.90;;;;;;5093036;28;20426;-59
2022/02/06 09:51:18;;;;;;;1.83;0.30;;;7.00;99.90;;;;;;5093170;28;20432;-61
2022/02/06 09:53:45;;;;;;;1.50;0.30;;;7.10;99.90;;;;;;5093822;28;20425;-60
2022/02/06 09:56:14;;;;;;;0.70;0.20;;;7.20;99.90;;;;;;5092752;28;20922;-60
2022/02/06 09:58:58;;;;;;;0.50;0.20;;;7.20;99.90;;;;;;5085877;28;20504;-57
2022/02/06 10:01:26;;;;;;;0.73;0.30;;;7.30;99.90;;;;;;5091758;28;20426;-59
2022/02/06 10:04:02;;;;;;;0.70;0.20;;;7.30;99.90;;;;;;5091469;28;20844;-58
2022/02/06 10:06:34;;;;;;;0.80;0.20;;;7.40;99.90;;;;;;5091181;28;20436;-58
2022/02/06 10:09:04;;;;;;;0.50;0.20;;;7.50;99.90;;;;;;5086064;28;20426;-59
2022/02/06 10:11:35;;;;;;;0.97;0.30;;;7.50;49.10;;;;;;5086981;28;20464;-57
2022/02/06 10:14:02;;;;;;;0.65;0.30;;;7.50;99.90;;;;;;5091600;28;20430;-58
2022/02/06 10:16:30;;;;;;;0.60;0.20;;;7.50;40.50;;;;;;5096973;28;20424;-59
2022/02/06 10:18:57;;;;;;;1.63;0.30;;;7.50;1.00;;;;;;5095377;28;20509;-58
2022/02/06 10:21:30;;;;;;;0.95;0.22;;;7.50;99.90;;;;;;5095963;28;20757;-58
2022/02/06 10:24:04;;;;;;;0.70;0.30;;;7.50;35.70;;;;;;5094405;28;20428;-58
2022/02/06 10:26:41;;;;;;;0.70;0.20;;;7.60;7.00;;;;;;5091015;28;20444;-58
2022/02/06 10:29:38;;;;;;;0.70;0.30;;;7.50;20.90;;;;;;5089919;28;20429;-58
2022/02/06 10:32:06;;;;;;;0.75;0.30;;;7.50;99.90;;;;;;5082707;28;20420;-58
2022/02/06 10:34:36;;;;;;;1.30;0.30;;;7.50;99.90;;;;;;5072579;28;20432;-58
2022/02/06 10:37:11;;;;;;;1.30;0.30;;;7.60;92.70;;;;;;5074020;28;20480;-58
2022/02/06 10:39:40;;;;;;;1.10;0.30;;;7.70;99.90;;;;;;5073583;28;20843;-58
2022/02/06 10:42:22;;;;;;;1.10;0.20;;;7.70;1.00;;;;;;5074785;28;20424;-58
2022/02/06 10:44:51;;;;;;;0.90;0.30;;;7.70;1.00;;;;;;5072722;28;20466;-59
2022/02/06 10:47:32;;;;;;;0.50;0.20;;;7.60;19.40;;;;;;5086590;28;20433;-58
2022/02/06 10:50:05;;;;;;;0.80;0.25;;;7.60;96.50;;;;;;5093141;28;20437;-59
2022/02/06 10:52:31;;;;;;;0.70;0.30;;;7.70;99.90;;;;;;5080493;28;20910;-60
2022/02/06 10:55:00;;;;;;;1.27;0.30;;;7.80;12.40;;;;;;5087552;28;20525;-59
2022/02/06 10:57:29;;;;;;;0.60;0.20;;;7.90;4.30;;;;;;5094871;28;20519;-60
2022/02/06 10:59:57;;;;;;;0.73;0.30;;;8.00;1.00;;;;;;5091034;28;20560;-58
2022/02/06 11:02:26;;;;;;;0.40;0.23;;;8.30;1.00;;;;;;5091691;28;20430;-60
2022/02/06 11:04:58;;;;;;;0.80;0.30;;;8.40;1.00;;;;;;5094035;28;20460;-60
2022/02/06 11:07:26;;;;;;;0.50;0.20;;;8.50;1.00;;;;;;5087344;28;20767;-60
2022/02/06 11:10:05;;;;;;;1.20;0.30;;;8.30;1.00;;;;;;5092480;28;20791;-60
2022/02/06 11:12:34;;;;;;;0.50;0.20;;;8.30;1.00;;;;;;5094573;28;20507;-59
2022/02/06 11:15:03;;;;;;;0.50;0.20;;;8.30;1.00;;;;;;5094339;28;20776;-59
2022/02/06 11:17:35;;;;;;;0.80;0.20;;;8.50;1.00;;;;;;5096160;28;20787;-59
2022/02/06 11:20:06;;;;;;;1.40;0.30;;;8.30;1.00;;;;;;5093278;28;20434;-58
2022/02/06 11:22:33;;;;;;;1.20;0.30;;;8.30;1.00;;;;;;5093955;28;20516;-59
2022/02/06 11:25:01;;;;;;;0.50;0.30;;;8.20;1.00;;;;;;5093097;28;20636;-59
2022/02/06 11:27:28;;;;;;;0.50;0.20;;;8.30;1.00;;;;;;5093287;28;20724;-59
2022/02/06 11:29:57;;;;;;;0.40;0.20;;;8.30;1.00;;;;;;5091733;28;20424;-59
2022/02/06 11:32:26;;;;;;;0.60;0.22;;;8.30;1.00;;;;;;5092994;28;20440;-58
2022/02/06 11:34:54;;;;;;;0.43;0.20;;;8.30;1.00;;;;;;5094599;28;20733;-59
2022/02/06 11:46:14;;;;;;;0.57;0.30;;;8.30;1.00;;;;;;5074841;28;20747;-59
2022/02/06 11:48:44;;;;;;;0.97;0.20;;;8.30;1.00;;;;;;5087015;28;20447;-59
2022/02/06 11:51:15;;;;;;;0.50;0.20;;;8.40;1.00;;;;;;5092027;28;20855;-59
2022/02/06 11:53:43;;;;;;;1.23;0.20;;;8.60;99.90;;;;;;5094553;28;20422;-59
2022/02/06 11:56:34;;;;;;;0.98;0.20;;;8.70;98.30;;;;;;5086884;28;20518;-59
2022/02/06 11:59:07;;;;;;;0.80;0.20;;;8.70;10.60;;;;;;5082296;28;20426;-59
2022/02/06 12:01:41;;;;;;;0.40;0.20;;;8.50;96.50;;;;;;5084288;28;20417;-59
2022/02/06 12:04:19;;;;;;;0.60;0.30;;;8.50;99.90;;;;;;5084888;28;20522;-59
2022/02/06 12:06:58;;;;;;;0.82;0.30;;;8.40;99.90;;;;;;5086573;28;20707;-59
2022/02/06 12:09:29;;;;;;;1.20;0.40;;;8.40;99.90;;;;;;5088869;28;20933;-59
2022/02/06 12:12:20;;;;;;;75.03;34.22;;;8.40;99.90;;;;;;5094239;28;20426;-60
2022/02/06 12:14:52;;;;;;;1.00;0.40;;;8.40;99.90;;;;;;5082798;28;20475;-61
2022/02/06 12:17:25;;;;;;;0.60;0.30;;;8.30;1.00;;;;;;5085546;28;20424;-60
2022/02/06 12:20:07;;;;;;;0.60;0.20;;;8.40;1.00;;;;;;5090731;28;20433;-58
2022/02/06 12:22:43;;;;;;;0.80;0.20;;;8.50;99.90;;;;;;5085117;28;20942;-60
2022/02/06 12:25:21;;;;;;;0.40;0.20;;;8.30;99.90;;;;;;5092147;28;20520;-60
2022/02/06 12:27:52;;;;;;;1.30;0.20;;;8.20;1.00;;;;;;5088786;28;20432;-58
2022/02/06 12:30:25;;;;;;;0.70;0.20;;;8.30;1.00;;;;;;5090515;28;20430;-58
2022/02/06 12:33:19;;;;;;;0.40;0.20;;;8.20;1.00;;;;;;5093610;28;20434;-58
2022/02/06 12:38:29;;;;;;;0.40;0.20;;;8.20;1.00;;;;;;5053030;28;20927;-59
2022/02/06 12:40:57;;;;;;;0.90;0.20;;;8.20;1.00;;;;;;5089571;28;20526;-59
2022/02/06 12:43:28;;;;;;;1.10;0.20;;;8.30;1.00;;;;;;5084402;28;20463;-59
2022/02/06 12:45:57;;;;;;;0.93;0.30;;;8.40;1.00;;;;;;5085089;28;21064;-59
2022/02/06 12:48:25;;;;;;;1.25;0.30;;;8.60;99.90;;;;;;5092118;28;20501;-59
2022/02/06 12:50:52;;;;;;;0.50;0.20;;;8.70;79.90;;;;;;5091333;28;20429;-59
2022/02/06 12:53:19;;;;;;;0.40;0.20;;;8.70;57.60;;;;;;5084899;28;20423;-58
2022/02/06 12:55:48;;;;;;;0.60;0.20;;;8.60;19.60;;;;;;5080923;28;20488;-59
2022/02/06 12:58:18;;;;;;;1.23;0.25;;;8.50;1.10;;;;;;5090755;28;20422;-59
2022/02/06 13:00:47;;;;;;;0.50;0.20;;;8.50;15.20;;;;;;5081272;28;20784;-58
2022/02/06 13:03:34;;;;;;;0.30;0.10;;;8.40;99.90;;;;;;5090652;28;20434;-59
2022/02/06 13:06:05;;;;;;;0.50;0.20;;;8.30;1.00;;;;;;5089400;28;20745;-60
2022/02/06 13:08:36;;;;;;;0.60;0.20;;;8.40;99.90;;;;;;5078903;28;20467;-59
2022/02/06 13:11:10;;;;;;;0.88;0.30;;;8.20;1.00;;;;;;5088291;28;20893;-59
2022/02/06 13:13:42;;;;;;;0.30;0.10;;;8.20;1.00;;;;;;5085232;28;20501;-59
2022/02/06 13:16:35;;;;;;;1.10;0.20;;;8.20;1.00;;;;;;5092304;28;20442;-59
2022/02/06 13:19:19;;;;;;;0.40;0.20;;;8.20;1.00;;;;;;5073537;28;20481;-58
2022/02/06 13:22:03;;;;;;;0.40;0.20;;;8.00;1.00;;;;;;5084667;28;20426;-58
2022/02/06 13:24:38;;;;;;;0.30;0.20;;;8.00;99.90;;;;;;5089578;28;20437;-60
2022/02/06 13:27:22;;;;;;;0.30;0.10;;;7.90;1.00;;;;;;5092361;28;20444;-59
2022/02/06 13:29:58;;;;;;;0.60;0.20;;;7.80;99.90;;;;;;5083448;28;20487;-59
2022/02/06 13:32:41;;;;;;;0.38;0.10;;;7.80;1.00;;;;;;5082353;28;20433;-60
2022/02/06 13:35:33;;;;;;;0.50;0.10;;;7.80;1.00;;;;;;5086742;28;20435;-59
2022/02/06 13:38:07;;;;;;;1.00;0.30;;;7.80;99.90;;;;;;5076569;28;20534;-60
2022/02/06 13:40:44;;;;;;;0.40;0.20;;;7.90;99.90;;;;;;5076429;28;20435;-60
2022/02/06 13:43:17;;;;;;;0.40;0.10;;;7.80;99.90;;;;;;5081410;28;20749;-60
2022/02/06 13:45:44;;;;;;;0.68;0.20;;;7.70;1.00;;;;;;5084407;28;20433;-60
2022/02/06 13:48:13;;;;;;;0.40;0.20;;;7.80;99.90;;;;;;5084428;28;20436;-59
2022/02/06 13:50:47;;;;;;;0.40;0.20;;;7.70;1.00;;;;;;5092469;28;20427;-60
2022/02/06 13:53:16;;;;;;;0.50;0.20;;;7.60;1.00;;;;;;5082387;28;20498;-60
2022/02/06 13:55:48;;;;;;;0.70;0.20;;;7.60;1.00;;;;;;5091250;28;20434;-60
2022/02/06 13:58:17;;;;;;;0.50;0.20;;;7.60;1.00;;;;;;5084532;28;20514;-61
2022/02/06 14:00:55;;;;;;;0.40;0.20;;;7.50;1.00;;;;;;5094720;28;20486;-60
2022/02/06 14:03:22;;;;;;;0.40;0.10;;;7.50;1.00;;;;;;5092600;28;20443;-58
2022/02/06 14:05:52;;;;;;;0.40;0.20;;;7.40;1.00;;;;;;5093398;28;20512;-58
2022/02/06 14:08:20;;;;;;;0.50;0.20;;;7.40;1.00;;;;;;5094216;28;20429;-58
2022/02/06 14:11:03;;;;;;;1.30;0.30;;;7.30;1.00;;;;;;5086240;28;20518;-57
2022/02/06 14:13:30;;;;;;;0.50;0.30;;;7.40;1.00;;;;;;5091348;28;20849;-53
2022/02/06 14:16:05;;;;;;;0.60;0.20;;;7.20;1.00;;;;;;5088028;28;20452;-57
2022/02/06 14:18:32;;;;;;;0.40;0.20;;;7.20;1.00;;;;;;5086287;28;20422;-56
2022/02/06 14:21:02;;;;;;;0.40;0.10;;;7.00;1.00;;;;;;5086134;28;20524;-58
2022/02/06 14:23:29;;;;;;;0.50;0.20;;;7.00;1.00;;;;;;5096240;28;20495;-58
2022/02/06 14:26:11;;;;;;;0.40;0.10;;;6.90;11.00;;;;;;5080551;28;20522;-59
2022/02/06 14:28:50;;;;;;;0.50;0.20;;;7.00;10.60;;;;;;5093378;28;20508;-55
2022/02/06 14:31:25;;;;;;;0.60;0.20;;;6.90;2.10;;;;;;5094496;28;20810;-55
2022/02/06 14:33:52;;;;;;;0.40;0.20;;;6.90;1.00;;;;;;5095802;28;20517;-57
2022/02/06 14:36:24;;;;;;;1.00;0.30;;;6.90;1.00;;;;;;5094461;28;20436;-60
2022/02/06 14:38:59;;;;;;;0.50;0.20;;;6.90;15.90;;;;;;5087393;28;20428;-58
2022/02/06 14:41:34;;;;;;;0.40;0.10;;;6.80;22.20;;;;;;5096880;28;20922;-58
2022/02/06 14:44:04;;;;;;;0.90;0.20;;;6.70;24.70;;;;;;5089007;28;20791;-58